Time;durP1;ratioP1;P1;durP2;ratioP2;P2;SDS_P1;SDS_P2;PMS_P1;PMS_P2;Temp;Humidity;BMP_temperature;BMP_pressure;BME280_temperature;BME280_humidity;BME280_pressure;Samples;Min_cycle;Max_cycle;Signal;HPM_P1;HPM_P2
2022/01/12 00:00:19;;;;;;;31.17;13.43;;;;;;;-2.42;84.29;102966.75;5063496;28;20421;-49
2022/01/12 00:02:46;;;;;;;27.50;13.43;;;;;;;-2.43;84.50;102964.97;5064153;28;20048;-50
2022/01/12 00:05:13;;;;;;;31.17;14.07;;;;;;;-2.44;84.45;102963.19;5066856;28;20401;-51
2022/01/12 00:07:40;;;;;;;28.35;12.77;;;;;;;-2.42;84.75;102964.22;5063696;28;20413;-49
2022/01/12 00:10:08;;;;;;;28.55;13.40;;;;;;;-2.41;84.49;102969.41;5065200;28;20060;-49
2022/01/12 00:12:37;;;;;;;29.25;13.98;;;;;;;-2.41;84.63;102963.44;5066129;28;20059;-48
2022/01/12 00:15:06;;;;;;;25.25;11.85;;;;;;;-2.40;85.15;102970.31;5066773;28;20068;-50
2022/01/12 00:17:34;;;;;;;29.85;13.15;;;;;;;-2.37;85.13;102970.53;5066525;28;20049;-47
2022/01/12 00:20:01;;;;;;;23.80;11.95;;;;;;;-2.36;85.36;102964.69;5067663;28;20135;-49
2022/01/12 00:22:28;;;;;;;27.13;12.35;;;;;;;-2.34;85.19;102961.50;5066128;28;20048;-50
2022/01/12 00:25:23;;;;;;;23.00;12.15;;;;;;;-2.30;85.60;102960.09;5066588;28;20123;-48
2022/01/12 00:33:21;;;;;;;28.02;11.75;;;;;;;-2.23;85.95;102967.44;5066364;28;20068;-54
2022/01/12 00:35:50;;;;;;;23.95;10.57;;;;;;;-2.23;85.95;102965.78;5067183;28;20049;-49
2022/01/12 00:38:20;;;;;;;20.73;9.98;;;;;;;-2.22;85.83;102961.59;5067224;28;20044;-50
2022/01/12 00:40:50;;;;;;;17.60;9.88;;;;;;;-2.20;85.64;102965.13;5071795;28;20047;-50
2022/01/12 00:43:19;;;;;;;17.52;9.40;;;;;;;-2.22;85.00;102959.03;5067246;28;20053;-50
2022/01/12 00:45:48;;;;;;;16.85;9.55;;;;;;;-2.24;84.90;102958.03;5065057;28;20044;-51
2022/01/12 00:48:16;;;;;;;17.85;9.68;;;;;;;-2.31;84.88;102959.22;5066209;28;20044;-50
2022/01/12 00:50:44;;;;;;;17.33;10.00;;;;;;;-2.32;84.60;102954.91;5065133;28;20052;-50
2022/01/12 00:53:12;;;;;;;19.95;10.80;;;;;;;-2.33;84.41;102954.78;5066798;28;20048;-49
2022/01/12 00:55:39;;;;;;;22.30;11.30;;;;;;;-2.36;84.03;102962.16;5066795;28;20045;-52
2022/01/12 00:58:06;;;;;;;19.02;10.43;;;;;;;-2.37;83.98;102962.91;5067511;28;20476;-51
2022/01/12 01:00:34;;;;;;;20.55;10.98;;;;;;;-2.41;84.13;102958.38;5066199;28;20049;-51
2022/01/12 01:03:03;;;;;;;17.67;9.75;;;;;;;-2.40;84.09;102960.13;5065604;28;20049;-52
2022/01/12 01:05:32;;;;;;;17.02;9.60;;;;;;;-2.42;83.64;102957.47;5068606;28;20063;-51
2022/01/12 01:08:00;;;;;;;20.10;10.02;;;;;;;-2.45;83.58;102961.44;5070156;28;20060;-49
2022/01/12 01:10:39;;;;;;;19.80;10.27;;;;;;;-2.50;83.27;102960.19;5070446;28;20044;-49
2022/01/12 01:13:06;;;;;;;19.48;10.60;;;;;;;-2.52;83.29;102954.09;5068267;28;20056;-51
2022/01/12 01:15:55;;;;;;;23.63;11.95;;;;;;;-2.53;83.22;102954.84;5070158;28;20579;-50
2022/01/12 01:26:40;;;;;;;20.10;10.70;;;;;;;-2.71;83.81;102952.59;5069100;28;20097;-53
2022/01/12 01:29:08;;;;;;;19.52;10.90;;;;;;;-2.74;83.86;102947.28;5069911;28;20134;-52
2022/01/12 01:31:36;;;;;;;19.00;11.07;;;;;;;-2.78;83.30;102945.25;5069291;28;20466;-50
2022/01/12 01:34:09;;;;;;;21.40;11.70;;;;;;;-2.78;83.90;102945.25;5070780;28;20054;-53
2022/01/12 01:36:38;;;;;;;23.40;13.55;;;;;;;-2.81;83.98;102950.09;5070355;28;20045;-49
2022/01/12 01:39:06;;;;;;;23.80;11.98;;;;;;;-2.84;84.37;102949.84;5068930;28;20061;-49
2022/01/12 01:41:34;;;;;;;22.13;11.85;;;;;;;-2.88;84.77;102943.63;5073774;28;20047;-50
2022/01/12 01:55:01;;;;;;;30.67;13.30;;;;;;;-2.92;85.10;102940.72;5075884;28;19947;-52
2022/01/12 01:57:28;;;;;;;32.05;14.30;;;;;;;-2.92;84.90;102935.66;5069412;28;20044;-51
2022/01/12 01:59:55;;;;;;;32.63;15.00;;;;;;;-2.92;85.53;102935.66;5068663;28;20048;-49
2022/01/12 02:02:22;;;;;;;31.48;14.35;;;;;;;-2.91;85.34;102932.34;5069839;28;20075;-49
2022/01/12 02:04:51;;;;;;;31.13;14.05;;;;;;;-2.96;85.22;102921.81;5068541;28;20473;-49
2022/01/12 02:07:18;;;;;;;29.85;14.18;;;;;;;-2.93;85.12;102928.78;5064176;28;20048;-50
2022/01/12 02:09:45;;;;;;;47.35;19.83;;;;;;;-2.95;84.77;102913.44;5065543;28;20052;-49
2022/01/12 02:12:13;;;;;;;107.40;34.63;;;;;;;-2.98;85.30;102914.84;5069015;28;20048;-48
2022/01/12 02:14:40;;;;;;;55.53;20.50;;;;;;;-3.04;85.23;102921.97;5069437;28;20130;-51
2022/01/12 02:17:15;;;;;;;55.45;22.33;;;;;;;-3.04;85.24;102927.03;5068701;28;20044;-49
2022/01/12 02:19:52;;;;;;;64.87;24.20;;;;;;;-3.04;85.51;102929.59;5068272;28;20102;-51
2022/01/12 02:36:13;;;;;;;39.45;15.60;;;;;;;-3.24;85.43;102910.19;5068438;28;20063;-51
2022/01/12 02:41:26;;;;;;;30.13;15.30;;;;;;;-3.25;85.52;102911.81;5075607;28;20048;-51
2022/01/12 02:55:11;;;;;;;27.15;11.55;;;;;;;-3.19;84.92;102904.72;5023149;28;20050;-49
2022/01/12 02:57:39;;;;;;;26.55;12.88;;;;;;;-3.18;85.01;102895.44;5056675;28;20045;-55
2022/01/12 03:00:10;;;;;;;26.73;14.45;;;;;;;-3.13;85.59;102903.44;5066032;28;20056;-52
2022/01/12 03:02:39;;;;;;;22.00;11.68;;;;;;;-3.09;84.92;102900.41;5067146;28;20067;-52
2022/01/12 03:08:03;;;;;;;25.38;13.73;;;;;;;-3.00;84.88;102906.22;5060890;28;20161;-50
2022/01/12 03:10:31;;;;;;;27.15;15.45;;;;;;;-2.97;84.63;102901.41;5066668;28;20037;-50
2022/01/12 03:12:58;;;;;;;23.83;11.77;;;;;;;-2.96;84.83;102904.06;5067670;28;20044;-50
2022/01/12 03:15:26;;;;;;;29.13;15.10;;;;;;;-2.96;84.83;102895.56;5067563;28;20048;-49
2022/01/12 03:17:53;;;;;;;21.67;11.73;;;;;;;-2.94;84.47;102886.41;5067506;28;20048;-51
2022/01/12 03:20:20;;;;;;;36.00;18.73;;;;;;;-2.92;84.70;102895.03;5067819;28;20060;-52
2022/01/12 03:22:47;;;;;;;30.13;15.63;;;;;;;-2.92;84.94;102895.94;5067958;28;20055;-51
2022/01/12 03:25:14;;;;;;;29.58;15.80;;;;;;;-2.91;84.31;102899.34;5067899;28;20048;-51
2022/01/12 03:27:43;;;;;;;29.48;15.10;;;;;;;-2.90;84.47;102893.50;5067515;28;20045;-50
2022/01/12 03:30:12;;;;;;;27.10;14.32;;;;;;;-2.94;84.09;102894.91;5066685;28;20055;-50
2022/01/12 03:32:44;;;;;;;37.35;19.23;;;;;;;-2.95;84.07;102884.66;5068038;28;20060;-50
2022/01/12 03:35:24;;;;;;;40.88;19.05;;;;;;;-2.96;83.91;102888.84;5067234;28;20053;-49
2022/01/12 03:38:19;;;;;;;39.90;21.60;;;;;;;-2.95;83.33;102889.72;5067206;28;20124;-51
2022/01/12 03:40:42;;;;;;;34.58;17.92;;;;;;;-2.97;83.77;102902.28;5080531;28;20079;-49
2022/01/12 03:43:10;;;;;;;36.00;20.25;;;;;;;-2.95;83.68;102904.94;5083456;28;20055;-51
2022/01/12 03:45:38;;;;;;;35.95;19.17;;;;;;;-2.97;83.43;102897.22;5068062;28;20127;-52
2022/01/12 03:48:06;;;;;;;38.95;20.02;;;;;;;-2.96;83.59;102893.03;5067550;28;20048;-51
2022/01/12 03:50:33;;;;;;;36.80;19.98;;;;;;;-2.96;83.41;102885.41;5066852;28;20060;-51
2022/01/12 03:53:00;;;;;;;34.72;18.35;;;;;;;-2.98;83.58;102885.28;5066661;28;20075;-50
2022/01/12 03:55:28;;;;;;;40.22;20.75;;;;;;;-2.98;83.60;102881.88;5067754;28;20052;-51
2022/01/12 03:57:55;;;;;;;38.28;19.88;;;;;;;-2.99;83.74;102877.56;5067837;28;20044;-51
2022/01/12 04:00:24;;;;;;;38.50;18.73;;;;;;;-2.98;83.66;102876.78;5067220;28;20052;-48
2022/01/12 04:02:51;;;;;;;39.03;21.00;;;;;;;-3.00;83.49;102891.88;5066792;28;20052;-52
2022/01/12 04:05:29;;;;;;;34.53;20.63;;;;;;;-3.00;83.78;102885.94;5069093;28;20047;-51
2022/01/12 04:10:41;;;;;;;42.28;21.90;;;;;;;-3.03;84.21;102888.22;5067108;28;20811;-51
2022/01/12 04:13:08;;;;;;;44.78;22.30;;;;;;;-3.03;83.76;102886.56;5065418;28;20585;-50
2022/01/12 04:15:36;;;;;;;42.25;23.08;;;;;;;-3.07;84.39;102884.56;5066926;28;20044;-49
2022/01/12 04:18:04;;;;;;;46.28;22.75;;;;;;;-3.07;84.30;102891.28;5063325;28;20056;-49
2022/01/12 04:20:31;;;;;;;40.17;22.42;;;;;;;-3.06;84.13;102893.06;5065867;28;20044;-52
2022/01/12 04:25:42;;;;;;;40.58;20.13;;;;;;;-3.08;84.39;102871.75;5065794;28;20528;-50
2022/01/12 04:28:10;;;;;;;50.72;25.73;;;;;;;-3.11;84.35;102868.97;5068086;28;20052;-49
2022/01/12 04:30:38;;;;;;;45.05;21.98;;;;;;;-3.13;84.09;102867.91;5067050;28;20449;-50
2022/01/12 04:33:06;;;;;;;40.03;19.77;;;;;;;-3.14;84.68;102858.53;5063860;28;20056;-51
2022/01/12 04:35:36;;;;;;;45.03;21.92;;;;;;;-3.13;84.51;102857.75;5066569;28;20048;-51
2022/01/12 04:38:03;;;;;;;42.15;21.63;;;;;;;-3.11;84.95;102861.34;5066127;28;20044;-50
2022/01/12 04:40:31;;;;;;;46.30;22.90;;;;;;;-3.12;84.76;102867.16;5070931;28;20055;-51
2022/01/12 04:42:58;;;;;;;48.47;24.08;;;;;;;-3.13;84.62;102867.91;5079828;28;20478;-49
2022/01/12 04:45:41;;;;;;;42.70;22.10;;;;;;;-3.16;84.63;102868.56;5071831;28;20056;-50
2022/01/12 04:48:32;;;;;;;42.92;22.30;;;;;;;-3.21;84.50;102870.72;5071267;28;20044;-50
2022/01/12 04:51:00;;;;;;;47.45;23.08;;;;;;;-3.20;84.52;102869.97;5070747;28;20044;-52
2022/01/12 04:53:27;;;;;;;47.03;23.33;;;;;;;-3.22;84.36;102863.88;5069536;28;20051;-54
2022/01/12 04:55:54;;;;;;;49.20;23.30;;;;;;;-3.24;84.66;102865.41;5070264;28;20048;-50
2022/01/12 04:58:22;;;;;;;49.50;23.70;;;;;;;-3.24;84.87;102873.00;5069702;28;20051;-50
2022/01/12 05:00:51;;;;;;;49.58;24.20;;;;;;;-3.24;84.87;102867.06;5069419;28;20482;-53
2022/01/12 05:09:09;;;;;;;46.22;21.85;;;;;;;-3.37;84.79;102871.91;5028589;28;19931;-50
2022/01/12 05:14:23;;;;;;;50.80;24.27;;;;;;;-3.41;84.85;102869.88;5068155;28;20051;-52
2022/01/12 05:16:50;;;;;;;47.97;24.80;;;;;;;-3.42;84.88;102884.19;5069706;28;20076;-50
2022/01/12 05:19:19;;;;;;;51.58;24.45;;;;;;;-3.43;84.64;102886.59;5068840;28;20045;-51
2022/01/12 05:21:46;;;;;;;52.50;25.08;;;;;;;-3.46;84.87;102883.81;5063055;28;20048;-53
2022/01/12 05:24:13;;;;;;;57.30;26.88;;;;;;;-3.50;84.37;102867.47;5068511;28;20044;-51
2022/01/12 05:26:41;;;;;;;54.75;26.02;;;;;;;-3.51;84.55;102865.69;5068337;28;20045;-50
2022/01/12 05:29:08;;;;;;;60.05;26.30;;;;;;;-3.59;84.40;102865.06;5066901;28;20068;-50
2022/01/12 05:31:35;;;;;;;53.88;25.73;;;;;;;-3.61;84.63;102865.72;5067410;28;20373;-49
2022/01/12 05:34:03;;;;;;;58.72;26.30;;;;;;;-3.65;84.87;102871.25;5066536;28;20052;-51
2022/01/12 05:36:32;;;;;;;54.78;25.17;;;;;;;-3.67;84.70;102875.31;5066853;28;20045;-52
2022/01/12 05:39:00;;;;;;;55.60;26.60;;;;;;;-3.71;85.18;102868.22;5067175;28;20504;-50
2022/01/12 05:41:28;;;;;;;50.88;26.83;;;;;;;-3.67;85.35;102870.25;5074068;28;20052;-50
2022/01/12 05:43:56;;;;;;;56.70;25.83;;;;;;;-3.67;85.44;102865.16;5067783;28;20125;-52
2022/01/12 05:46:26;;;;;;;50.90;23.77;;;;;;;-3.68;85.00;102855.78;5066714;28;20061;-50
2022/01/12 05:51:40;;;;;;;52.47;24.50;;;;;;;-3.65;85.01;102850.97;5066762;28;20627;-50
2022/01/12 05:54:07;;;;;;;53.60;23.42;;;;;;;-3.65;85.06;102839.19;5066714;28;20052;-52
2022/01/12 05:56:34;;;;;;;56.45;26.48;;;;;;;-3.64;84.78;102840.06;5067188;28;20813;-50
2022/01/12 05:59:01;;;;;;;58.55;28.08;;;;;;;-3.64;85.16;102845.16;5067963;28;20044;-50
2022/01/12 06:01:29;;;;;;;56.60;27.25;;;;;;;-3.64;85.40;102847.69;5066722;28;20041;-51
2022/01/12 06:03:57;;;;;;;49.17;23.77;;;;;;;-3.68;85.23;102849.06;5067988;28;20056;-49
2022/01/12 06:06:24;;;;;;;54.47;23.50;;;;;;;-3.66;84.62;102851.75;5068086;28;20080;-50
2022/01/12 06:08:52;;;;;;;50.22;24.13;;;;;;;-3.64;84.74;102850.22;5061580;28;20059;-52
2022/01/12 06:11:20;;;;;;;60.35;25.50;;;;;;;-3.61;84.68;102845.44;5067704;28;20057;-50
2022/01/12 06:13:47;;;;;;;48.17;24.85;;;;;;;-3.60;85.07;102839.59;5069198;28;20059;-50
2022/01/12 06:16:14;;;;;;;56.20;26.70;;;;;;;-3.59;85.27;102838.84;5067286;28;20076;-50
2022/01/12 06:18:41;;;;;;;57.80;26.02;;;;;;;-3.60;85.21;102834.53;5067440;28;20067;-49
2022/01/12 06:21:08;;;;;;;55.28;27.55;;;;;;;-3.59;84.83;102828.69;5066413;28;20055;-54
2022/01/12 06:23:36;;;;;;;56.67;27.13;;;;;;;-3.60;85.07;102821.84;5067782;28;20045;-52
2022/01/12 06:26:04;;;;;;;55.35;25.13;;;;;;;-3.58;85.47;102835.53;5076177;28;20051;-51
2022/01/12 06:28:52;;;;;;;57.45;25.90;;;;;;;-3.59;85.27;102831.22;5067945;28;20059;-51
2022/01/12 06:31:26;;;;;;;53.42;24.90;;;;;;;-3.61;84.95;102830.22;5067862;28;20044;-51
2022/01/12 06:33:53;;;;;;;50.13;24.40;;;;;;;-3.62;84.96;102828.44;5065853;28;20140;-52
2022/01/12 06:36:22;;;;;;;54.88;27.23;;;;;;;-3.63;84.99;102819.94;5066748;28;20058;-51
2022/01/12 06:38:50;;;;;;;53.25;24.20;;;;;;;-3.66;84.80;102801.94;5064319;28;20044;-50
2022/01/12 06:41:20;;;;;;;52.47;25.17;;;;;;;-3.68;84.48;102805.09;5069272;28;20056;-51
2022/01/12 06:43:47;;;;;;;50.67;25.52;;;;;;;-3.70;84.75;102814.22;5065091;28;20040;-52
2022/01/12 06:46:17;;;;;;;55.00;24.15;;;;;;;-3.69;84.87;102816.00;5066751;28;20054;-50
2022/01/12 06:48:45;;;;;;;50.03;23.92;;;;;;;-3.71;84.56;102807.38;5066215;28;20477;-50
2022/01/12 06:51:12;;;;;;;55.03;24.25;;;;;;;-3.71;84.56;102794.72;5066999;28;20048;-52
2022/01/12 06:53:39;;;;;;;54.50;25.23;;;;;;;-3.71;84.97;102776.97;5065174;28;20049;-52
2022/01/12 06:56:08;;;;;;;55.10;24.02;;;;;;;-3.73;84.74;102788.63;5073417;28;20056;-50
2022/01/12 06:58:37;;;;;;;61.20;25.48;;;;;;;-3.72;84.80;102798.00;5068132;28;20048;-52
2022/01/12 07:01:04;;;;;;;51.60;24.02;;;;;;;-3.73;85.12;102798.78;5065518;28;20048;-53
2022/01/12 07:03:31;;;;;;;50.72;26.17;;;;;;;-3.72;84.75;102808.16;5077537;28;20055;-50
2022/01/12 07:06:04;;;;;;;50.38;23.48;;;;;;;-3.71;85.41;102797.25;5068022;28;20060;-52
2022/01/12 07:08:34;;;;;;;48.85;21.73;;;;;;;-3.69;85.10;102780.50;5067266;28;20429;-54
2022/01/12 07:11:03;;;;;;;51.45;24.13;;;;;;;-3.66;85.33;102780.75;5066376;28;20555;-52
2022/01/12 07:13:30;;;;;;;56.72;25.48;;;;;;;-3.68;85.28;102784.81;5067220;28;20044;-53
2022/01/12 07:16:01;;;;;;;59.85;24.80;;;;;;;-3.66;85.15;102785.84;5067801;28;20409;-48
2022/01/12 07:18:29;;;;;;;54.05;24.42;;;;;;;-3.64;85.39;102780.16;5067023;28;20053;-51
2022/01/12 07:20:57;;;;;;;59.90;25.45;;;;;;;-3.60;85.24;102778.75;5064608;28;20070;-49
2022/01/12 07:23:24;;;;;;;51.42;25.60;;;;;;;-3.59;85.58;102778.88;5065390;28;20064;-50
2022/01/12 07:25:52;;;;;;;54.92;24.17;;;;;;;-3.55;85.60;102775.84;5067209;28;20051;-51
2022/01/12 07:28:19;;;;;;;56.90;24.67;;;;;;;-3.50;85.34;102783.81;5066133;28;20052;-50
2022/01/12 07:30:47;;;;;;;52.40;22.30;;;;;;;-3.47;85.35;102781.50;5066139;28;20052;-51
2022/01/12 07:33:15;;;;;;;51.20;22.08;;;;;;;-3.46;84.65;102778.22;5065218;28;20049;-49
2022/01/12 07:35:44;;;;;;;49.33;22.60;;;;;;;-3.42;84.84;102787.84;5066463;28;20040;-50
2022/01/12 07:38:12;;;;;;;48.72;24.60;;;;;;;-3.38;84.55;102791.50;5066241;28;20048;-50
2022/01/12 07:40:39;;;;;;;77.20;31.02;;;;;;;-3.38;84.10;102787.31;5066789;28;20060;-49
2022/01/12 07:43:08;;;;;;;54.70;23.63;;;;;;;-3.34;84.24;102791.00;5079229;28;20051;-51
2022/01/12 07:45:36;;;;;;;54.88;25.48;;;;;;;-3.32;83.92;102790.34;5072228;28;20477;-53
2022/01/12 07:48:04;;;;;;;56.00;23.60;;;;;;;-3.30;83.61;102783.75;5054934;28;20477;-51
2022/01/12 07:50:33;;;;;;;50.60;23.20;;;;;;;-3.26;83.50;102789.94;5055017;28;20056;-50
2022/01/12 07:53:01;;;;;;;45.97;21.80;;;;;;;-3.22;83.43;102787.78;5056307;28;20052;-51
2022/01/12 07:55:28;;;;;;;59.60;25.42;;;;;;;-3.21;83.36;102787.00;5058518;28;20143;-53
2022/01/12 07:57:55;;;;;;;49.47;23.98;;;;;;;-3.19;83.11;102790.56;5055262;28;20049;-49
2022/01/12 08:00:23;;;;;;;57.20;25.77;;;;;;;-3.15;83.18;102795.88;5055851;28;20044;-54
2022/01/12 08:02:50;;;;;;;47.85;22.52;;;;;;;-3.12;83.08;102788.50;5054252;28;20067;-49
2022/01/12 08:05:18;;;;;;;54.42;22.77;;;;;;;-3.10;82.96;102789.53;5058168;28;20537;-52
2022/01/12 08:07:48;;;;;;;64.22;30.05;;;;;;;-3.08;82.93;102780.41;5055255;28;20757;-51
2022/01/12 08:10:17;;;;;;;56.72;24.17;;;;;;;-3.03;83.04;102774.91;5054702;28;20063;-51
2022/01/12 08:12:45;;;;;;;62.55;27.02;;;;;;;-3.00;82.93;102774.28;5057581;28;20056;-50
2022/01/12 08:15:13;;;;;;;58.13;26.08;;;;;;;-2.98;82.70;102775.28;5064385;28;20044;-50
2022/01/12 08:17:41;;;;;;;66.25;27.52;;;;;;;-2.93;82.89;102791.75;5062653;28;20055;-50
2022/01/12 08:20:12;;;;;;;65.95;29.27;;;;;;;-2.91;82.69;102798.72;5059020;28;20060;-53
2022/01/12 08:22:41;;;;;;;85.47;36.47;;;;;;;-2.86;82.17;102807.56;5059382;28;20052;-50
2022/01/12 08:25:11;;;;;;;74.60;30.83;;;;;;;-2.80;82.65;102804.63;5058538;28;20052;-52
2022/01/12 08:27:39;;;;;;;101.22;40.42;;;;;;;-2.79;81.94;102803.88;5061096;28;20413;-49
2022/01/12 08:30:17;;;;;;;82.78;34.47;;;;;;;-2.75;82.37;102808.41;5062819;28;20437;-51
2022/01/12 08:32:44;;;;;;;61.25;28.48;;;;;;;-2.69;82.23;102813.09;5063204;28;20049;-52
2022/01/12 08:35:12;;;;;;;80.32;32.58;;;;;;;-2.66;82.45;102821.81;5064559;28;20067;-49
2022/01/12 08:37:39;;;;;;;94.57;36.90;;;;;;;-2.62;82.06;102812.78;5060451;28;20068;-52
2022/01/12 08:40:11;;;;;;;63.70;26.27;;;;;;;-2.57;82.21;102814.06;5057923;28;20048;-51
2022/01/12 08:42:38;;;;;;;61.20;26.65;;;;;;;-2.53;82.17;102821.16;5062408;28;20071;-52
2022/01/12 08:45:07;;;;;;;70.68;29.60;;;;;;;-2.51;81.63;102812.00;5061354;28;20498;-52
2022/01/12 08:47:35;;;;;;;100.13;40.85;;;;;;;-2.45;81.86;102807.38;5058880;28;20504;-52
2022/01/12 08:50:02;;;;;;;74.28;29.88;;;;;;;-2.41;81.40;102800.88;5057975;28;20052;-51
2022/01/12 08:52:31;;;;;;;111.78;45.17;;;;;;;-2.37;81.41;102793.63;5056675;28;20064;-50
2022/01/12 08:54:59;;;;;;;82.68;37.03;;;;;;;-2.32;81.64;102791.44;5060526;28;20056;-53
2022/01/12 08:57:29;;;;;;;76.78;36.42;;;;;;;-2.28;81.08;102783.28;5063419;28;20052;-50
2022/01/12 08:59:57;;;;;;;96.28;42.53;;;;;;;-2.23;81.46;102782.84;5057357;28;20140;-52
2022/01/12 09:02:25;;;;;;;109.63;44.65;;;;;;;-2.16;81.29;102804.53;5068308;28;20048;-50
2022/01/12 09:04:52;;;;;;;59.22;26.65;;;;;;;-2.09;81.40;102806.75;5063622;28;20052;-50
2022/01/12 09:07:19;;;;;;;76.50;34.78;;;;;;;-2.01;81.23;102805.69;5059326;28;20494;-53
2022/01/12 09:09:47;;;;;;;64.68;29.83;;;;;;;-1.94;81.05;102802.84;5059028;28;20049;-50
2022/01/12 09:12:14;;;;;;;82.18;39.17;;;;;;;-1.86;80.87;102800.00;5063665;28;20059;-52
2022/01/12 09:14:42;;;;;;;55.47;24.73;;;;;;;-1.84;80.70;102803.53;5063704;28;20045;-50
2022/01/12 09:17:16;;;;;;;57.05;26.77;;;;;;;-1.79;80.22;102798.00;5062447;28;20052;-51
2022/01/12 09:19:43;;;;;;;63.78;28.30;;;;;;;-1.76;79.81;102793.16;5060431;28;20390;-52
2022/01/12 09:22:10;;;;;;;64.03;27.00;;;;;;;-1.71;79.71;102793.50;5060066;28;20417;-52
2022/01/12 09:24:38;;;;;;;82.85;36.40;;;;;;;-1.66;79.83;102793.06;5060526;28;20058;-51
2022/01/12 09:27:05;;;;;;;66.07;29.95;;;;;;;-1.58;79.86;102799.59;5059672;28;20048;-53
2022/01/12 09:29:32;;;;;;;70.82;28.60;;;;;;;-1.51;79.50;102793.31;5060104;28;20048;-51
2022/01/12 09:32:01;;;;;;;56.97;27.20;;;;;;;-1.44;79.65;102802.28;5061153;28;20405;-53
2022/01/12 09:34:29;;;;;;;62.22;26.67;;;;;;;-1.39;79.35;102799.28;5058008;28;20056;-50
2022/01/12 09:36:56;;;;;;;61.33;27.48;;;;;;;-1.37;78.57;102774.84;5055689;28;20062;-50
2022/01/12 09:39:23;;;;;;;54.30;27.13;;;;;;;-1.37;78.25;102779.94;5059076;28;20052;-51
2022/01/12 09:41:50;;;;;;;58.22;29.17;;;;;;;-1.34;78.39;102764.91;5060713;28;20053;-51
2022/01/12 09:44:18;;;;;;;64.20;32.00;;;;;;;-1.31;78.62;102760.03;5060210;28;20056;-51
2022/01/12 09:46:45;;;;;;;58.97;27.00;;;;;;;-1.27;78.74;102761.13;5059110;28;20044;-53
2022/01/12 09:49:14;;;;;;;59.47;28.38;;;;;;;-1.22;78.08;102756.38;5060417;28;20048;-50
2022/01/12 09:51:41;;;;;;;59.70;28.60;;;;;;;-1.14;78.58;102747.59;5060654;28;20490;-51
2022/01/12 09:54:10;;;;;;;57.83;28.98;;;;;;;-1.07;78.30;102757.44;5057578;28;20053;-51
2022/01/12 09:56:37;;;;;;;60.90;28.38;;;;;;;-1.00;78.03;102752.03;5061816;28;20094;-51
2022/01/12 09:59:04;;;;;;;56.78;28.20;;;;;;;-0.98;77.86;102735.22;5058966;28;20056;-51
2022/01/12 10:01:34;;;;;;;74.43;37.00;;;;;;;-0.95;77.64;102735.41;5057943;28;20481;-51
2022/01/12 10:04:09;;;;;;;61.75;27.50;;;;;;;-0.91;77.54;102734.84;5054741;28;20048;-49
2022/01/12 10:06:40;;;;;;;63.88;31.35;;;;;;;-0.90;77.47;102731.53;5056582;28;20060;-49
2022/01/12 10:09:08;;;;;;;60.40;28.23;;;;;;;-0.95;76.99;102725.25;5010397;28;1413981;-50
2022/01/12 10:11:35;;;;;;;62.95;30.48;;;;;;;-0.93;77.59;102718.59;5057206;28;20302;-52
2022/01/12 10:14:03;;;;;;;67.03;32.83;;;;;;;-0.88;77.68;102712.16;5058461;28;20041;-52
2022/01/12 10:16:30;;;;;;;56.22;27.10;;;;;;;-0.88;77.73;102712.16;5056648;28;20094;-49
2022/01/12 10:19:00;;;;;;;57.83;27.40;;;;;;;-0.89;77.82;102702.75;5056669;28;20056;-51
2022/01/12 10:21:30;;;;;;;58.80;29.02;;;;;;;-0.88;77.84;102712.16;5058405;28;20060;-50
2022/01/12 10:24:00;;;;;;;61.45;30.10;;;;;;;-0.87;77.83;102706.28;5059504;28;20098;-50
2022/01/12 10:26:37;;;;;;;63.70;29.13;;;;;;;-0.85;77.93;102704.72;5060555;28;20072;-49
2022/01/12 10:29:10;;;;;;;61.33;29.52;;;;;;;-0.84;78.12;102711.59;5057815;28;20173;-51
2022/01/12 10:31:49;;;;;;;63.50;28.23;;;;;;;-0.81;77.77;102703.28;5059359;28;20564;-50
2022/01/12 10:34:17;;;;;;;63.30;29.90;;;;;;;-0.79;77.62;102705.16;5058022;28;20106;-53
2022/01/12 10:36:46;;;;;;;62.33;29.83;;;;;;;-0.72;77.85;102699.69;5056944;28;20052;-50
2022/01/12 10:39:17;;;;;;;59.88;29.73;;;;;;;-0.61;77.61;102707.19;5058622;28;20410;-48
2022/01/12 10:41:54;;;;;;;69.30;31.30;;;;;;;-0.51;77.39;102696.84;5058206;28;21907;-54
2022/01/12 10:44:24;;;;;;;60.22;29.63;;;;;;;-0.43;77.11;102693.16;5057286;28;20075;-51
2022/01/12 10:46:51;;;;;;;62.92;30.13;;;;;;;-0.36;76.72;102687.69;5061632;28;20059;-53
2022/01/12 10:49:20;;;;;;;66.72;32.10;;;;;;;-0.28;77.01;102688.19;5057784;28;20059;-51
2022/01/12 10:51:55;;;;;;;58.15;28.05;;;;;;;-0.26;76.49;102677.31;5057572;28;20098;-52
2022/01/12 10:54:25;;;;;;;63.70;28.87;;;;;;;-0.22;76.68;102689.47;5056652;28;20433;-53
2022/01/12 10:56:52;;;;;;;60.60;27.77;;;;;;;-0.21;76.52;102681.06;5056572;28;20045;-54
2022/01/12 10:59:22;;;;;;;60.83;29.77;;;;;;;-0.23;76.34;102667.31;5056355;28;20044;-53
2022/01/12 11:01:49;;;;;;;63.65;29.77;;;;;;;-0.21;77.12;102665.75;5054436;28;20048;-49
2022/01/12 11:04:18;;;;;;;61.95;28.52;;;;;;;-0.18;76.86;102667.63;5055481;28;20048;-51
2022/01/12 11:06:45;;;;;;;64.95;30.52;;;;;;;-0.18;76.97;102660.88;5062205;28;20047;-52
2022/01/12 11:09:13;;;;;;;60.47;29.67;;;;;;;-0.16;76.71;102656.75;5055822;28;20051;-49
2022/01/12 11:11:42;;;;;;;65.60;30.00;;;;;;;-0.09;76.78;102648.72;5053647;28;20059;-54
2022/01/12 11:14:11;;;;;;;59.35;30.23;;;;;;;-0.07;77.08;102659.00;5056678;28;20064;-52
2022/01/12 11:16:38;;;;;;;60.88;30.27;;;;;;;-0.11;76.79;102647.72;5057626;28;20060;-55
2022/01/12 11:19:08;;;;;;;69.63;33.92;;;;;;;-0.11;77.07;102639.19;5055487;28;20068;-50
2022/01/12 11:21:41;;;;;;;65.22;32.25;;;;;;;-0.15;77.05;102635.56;5055264;28;20055;-49
2022/01/12 11:24:13;;;;;;;64.40;32.65;;;;;;;-0.19;77.17;102643.81;5055903;28;20063;-50
2022/01/12 11:26:48;;;;;;;72.45;33.90;;;;;;;-0.29;77.50;102626.16;5058914;28;20496;-50
2022/01/12 11:29:25;;;;;;;64.78;30.70;;;;;;;-0.34;77.90;102627.50;5055485;28;20040;-49
2022/01/12 11:31:52;;;;;;;64.28;31.95;;;;;;;-0.36;78.13;102626.53;5054506;28;20121;-52
2022/01/12 11:34:20;;;;;;;69.90;32.55;;;;;;;-0.37;78.56;102624.75;5054807;28;20478;-53
2022/01/12 11:36:47;;;;;;;73.70;31.02;;;;;;;-0.42;79.04;102628.69;5057797;28;20057;-52
2022/01/12 11:39:18;;;;;;;70.07;32.30;;;;;;;-0.44;79.07;102620.06;5056437;28;20052;-49
2022/01/12 11:41:49;;;;;;;63.38;31.10;;;;;;;-0.43;79.01;102614.16;5056032;28;20076;-53
2022/01/12 11:44:18;;;;;;;70.53;34.08;;;;;;;-0.43;79.53;102611.63;5056970;28;20650;-49
2022/01/12 11:46:48;;;;;;;66.80;32.25;;;;;;;-0.45;79.43;102618.28;5059416;28;20079;-52
2022/01/12 11:49:27;;;;;;;74.93;34.80;;;;;;;-0.50;79.48;102614.56;5057050;28;20037;-51
2022/01/12 11:51:55;;;;;;;72.35;32.47;;;;;;;-0.49;79.55;102606.13;5056578;28;20051;-50
2022/01/12 11:54:24;;;;;;;68.35;31.92;;;;;;;-0.51;79.73;102612.78;5055275;28;20060;-49
2022/01/12 11:56:56;;;;;;;71.47;33.22;;;;;;;-0.52;79.52;102611.91;5055559;28;20048;-50
2022/01/12 11:59:26;;;;;;;64.38;32.30;;;;;;;-0.56;79.64;102620.09;5057418;28;20056;-52
2022/01/12 12:01:55;;;;;;;66.65;32.08;;;;;;;-0.53;79.72;102620.28;5060674;28;20434;-51
2022/01/12 12:04:27;;;;;;;65.70;32.55;;;;;;;-0.45;79.79;102619.16;5057772;28;20052;-49
2022/01/12 12:07:09;;;;;;;75.40;33.42;;;;;;;-0.35;79.32;102620.66;5057209;28;20091;-53
2022/01/12 12:09:43;;;;;;;79.25;35.42;;;;;;;-0.24;79.10;102626.44;5054637;28;20056;-49
2022/01/12 12:12:18;;;;;;;69.30;31.77;;;;;;;-0.18;78.94;102617.53;5054272;28;20048;-51
2022/01/12 12:14:48;;;;;;;72.78;32.90;;;;;;;-0.10;78.90;102613.81;5058509;28;20052;-51
2022/01/12 12:17:16;;;;;;;72.65;33.97;;;;;;;-0.01;78.63;102618.59;5056456;28;20064;-52
2022/01/12 12:19:43;;;;;;;69.65;32.00;;;;;;;0.05;78.59;102628.34;5056258;28;20415;-49
2022/01/12 12:22:13;;;;;;;72.75;32.83;;;;;;;0.10;78.46;102626.97;5054080;28;20052;-50
2022/01/12 12:24:40;;;;;;;70.45;31.70;;;;;;;0.10;78.02;102637.19;5054807;28;20051;-49
2022/01/12 12:27:10;;;;;;;70.68;32.25;;;;;;;0.15;78.42;102635.81;5055266;28;20057;-49
2022/01/12 12:29:39;;;;;;;72.72;33.17;;;;;;;0.18;78.15;102648.75;5059082;28;20041;-51